Portada
METAR-TAF:

METAR-TAF

Aeroports :

Hassi R'Mel, Algèria

latitud: 32-55-48N, longitud: 003-18-44E, altitud: 774 m

Observació

L'informe es va fer fa 4 hores i 8 minuts, a les 18:00 UTC
Vent 11 kt del Est/Nord-Est
Temperatura 30°C
Humitat 22%
Pressió 1021 hPa
Visibilitat 10 km o més
sense núvols per sota de 1500 mi sense presència de cumulonimbus.

METAR: DAFH 251800Z 07011KT CAVOK 30/06 Q1021

Hora: 23:08 (22:08 UTC)

Pronòstic

L'informe es va fer fa 5 hores i 8 minuts, a les 17:00 UTC
Pronòstic vàlid del 25 a les 18 UTC al 26 a les 03 UTC
Vent 8 kt del Est
Visibilitat 10 km o més
sense núvols per sota de 1500 mi sense presència de cumulonimbus.
Probabilitat 40%
l' 25 a les 19 UTC al 25 a les 23 UTC
Visibilitat: 3000 m
Escasses núvols a una alçada de 4000 ft, Cumulonimbus.
Pols estès
Evolucionant progressivament
l' 25 a les 21 UTC al 26 a les 01 UTC
Vent 2 kt amb direcció variable

TAF: DAFH 251700Z 2518/2603 08008KT CAVOK PROB40 2519/2523 3000 DU FEW040CB BECMG 2521/2601 VRB02KT

Observacions i pronòstics meteorològics de més de 4000 aeroports (METAR i TAF).

Les estacions disponibles són els punts grocs i vermells al mapa.

Posi el ratolí al punt desitjat per veure el nom de l'estació.

Feu clic per veure les observacions i els pronòstics meteorològics.

Per canviar el mapa: feu clic els botons verds amb una creu de color negre per apropar; al botó verd amb un guió per allunyar la imatge; o en les fletxes verdes per a mapes adjacents.


METAR-TAF: